sensor_id;sensor_type;location;lat;lon;timestamp;pressure;altitude;pressure_sealevel;temperature;humidity
52855;BME280;38719;51.418;7.286;2023-03-22T00:01:24;99315.53;;;12.49;63.20
52855;BME280;38719;51.418;7.286;2023-03-22T00:03:53;99308.69;;;12.45;63.13
52855;BME280;38719;51.418;7.286;2023-03-22T00:06:21;99310.97;;;12.37;63.26
52855;BME280;38719;51.418;7.286;2023-03-22T00:08:50;99306.69;;;12.34;63.28
52855;BME280;38719;51.418;7.286;2023-03-22T00:11:18;99307.06;;;12.28;63.22
52855;BME280;38719;51.418;7.286;2023-03-22T00:13:47;99305.06;;;12.32;63.04
52855;BME280;38719;51.418;7.286;2023-03-22T00:16:18;99302.41;;;12.32;63.35
52855;BME280;38719;51.418;7.286;2023-03-22T00:18:46;99305.63;;;12.37;63.13
52855;BME280;38719;51.418;7.286;2023-03-22T00:21:15;99308.31;;;12.37;62.92
52855;BME280;38719;51.418;7.286;2023-03-22T00:23:43;99296.28;;;12.44;62.68
52855;BME280;38719;51.418;7.286;2023-03-22T00:26:12;99295.72;;;12.24;63.01
52855;BME280;38719;51.418;7.286;2023-03-22T00:28:40;99295.63;;;12.40;63.31
52855;BME280;38719;51.418;7.286;2023-03-22T00:31:09;99293.06;;;12.39;62.80
52855;BME280;38719;51.418;7.286;2023-03-22T00:33:37;99291.00;;;12.57;62.60
52855;BME280;38719;51.418;7.286;2023-03-22T00:36:07;99290.56;;;12.50;62.47
52855;BME280;38719;51.418;7.286;2023-03-22T00:38:35;99291.78;;;12.45;62.79
52855;BME280;38719;51.418;7.286;2023-03-22T00:41:11;99285.22;;;12.50;62.96
52855;BME280;38719;51.418;7.286;2023-03-22T00:43:39;99281.59;;;12.51;62.58
52855;BME280;38719;51.418;7.286;2023-03-22T00:46:09;99288.84;;;12.49;62.36
52855;BME280;38719;51.418;7.286;2023-03-22T00:48:37;99282.16;;;12.42;62.52
52855;BME280;38719;51.418;7.286;2023-03-22T00:51:06;99279.38;;;12.44;63.28
52855;BME280;38719;51.418;7.286;2023-03-22T00:53:34;99265.09;;;12.45;62.69
52855;BME280;38719;51.418;7.286;2023-03-22T00:56:02;99272.75;;;12.36;63.01
52855;BME280;38719;51.418;7.286;2023-03-22T00:58:29;99274.63;;;12.49;62.54
52855;BME280;38719;51.418;7.286;2023-03-22T01:00:57;99264.69;;;12.51;62.59
52855;BME280;38719;51.418;7.286;2023-03-22T01:03:26;99249.19;;;12.29;64.04
52855;BME280;38719;51.418;7.286;2023-03-22T01:05:53;99257.69;;;12.21;64.30
52855;BME280;38719;51.418;7.286;2023-03-22T01:08:22;99252.63;;;12.31;63.74
52855;BME280;38719;51.418;7.286;2023-03-22T01:10:49;99257.69;;;12.35;63.27
52855;BME280;38719;51.418;7.286;2023-03-22T01:13:17;99252.84;;;12.28;63.75
52855;BME280;38719;51.418;7.286;2023-03-22T01:15:44;99243.66;;;12.32;63.96
52855;BME280;38719;51.418;7.286;2023-03-22T01:18:13;99247.38;;;12.29;63.41
52855;BME280;38719;51.418;7.286;2023-03-22T01:20:41;99249.84;;;12.32;63.73
52855;BME280;38719;51.418;7.286;2023-03-22T01:23:09;99236.16;;;12.09;64.69
52855;BME280;38719;51.418;7.286;2023-03-22T01:25:36;99236.22;;;12.22;64.82
52855;BME280;38719;51.418;7.286;2023-03-22T01:28:04;99233.75;;;12.19;65.14
52855;BME280;38719;51.418;7.286;2023-03-22T01:30:33;99232.72;;;12.22;64.96
52855;BME280;38719;51.418;7.286;2023-03-22T01:33:00;99231.28;;;12.31;64.38
52855;BME280;38719;51.418;7.286;2023-03-22T01:35:28;99234.03;;;12.29;64.73
52855;BME280;38719;51.418;7.286;2023-03-22T01:37:57;99217.41;;;12.38;63.86
52855;BME280;38719;51.418;7.286;2023-03-22T01:40:25;99226.13;;;12.28;64.61
52855;BME280;38719;51.418;7.286;2023-03-22T01:42:53;99224.22;;;12.30;64.73
52855;BME280;38719;51.418;7.286;2023-03-22T01:45:37;99219.03;;;12.41;64.82
52855;BME280;38719;51.418;7.286;2023-03-22T01:48:11;99217.63;;;12.35;63.57
52855;BME280;38719;51.418;7.286;2023-03-22T01:50:44;99215.56;;;12.12;65.77
52855;BME280;38719;51.418;7.286;2023-03-22T01:53:15;99214.69;;;12.11;65.49
52855;BME280;38719;51.418;7.286;2023-03-22T01:55:45;99213.25;;;12.20;65.09
52855;BME280;38719;51.418;7.286;2023-03-22T01:58:14;99203.63;;;12.17;65.51
52855;BME280;38719;51.418;7.286;2023-03-22T02:00:44;99200.78;;;12.06;65.85
52855;BME280;38719;51.418;7.286;2023-03-22T02:03:13;99200.63;;;12.09;65.22
52855;BME280;38719;51.418;7.286;2023-03-22T02:05:43;99189.34;;;12.04;65.43
52855;BME280;38719;51.418;7.286;2023-03-22T02:08:10;99193.06;;;12.01;65.33
52855;BME280;38719;51.418;7.286;2023-03-22T02:10:41;99184.50;;;12.11;64.86
52855;BME280;38719;51.418;7.286;2023-03-22T02:13:21;99182.69;;;11.82;65.88
52855;BME280;38719;51.418;7.286;2023-03-22T02:15:59;99185.63;;;11.92;65.97
52855;BME280;38719;51.418;7.286;2023-03-22T02:18:44;99180.56;;;11.87;65.87
52855;BME280;38719;51.418;7.286;2023-03-22T02:21:41;99172.22;;;12.08;65.81
52855;BME280;38719;51.418;7.286;2023-03-22T02:24:37;99170.00;;;12.00;65.65
52855;BME280;38719;51.418;7.286;2023-03-22T02:33:12;99160.97;;;12.03;66.13
52855;BME280;38719;51.418;7.286;2023-03-22T02:35:59;99163.16;;;11.96;65.68
52855;BME280;38719;51.418;7.286;2023-03-22T02:38:49;99153.22;;;11.84;66.21
52855;BME280;38719;51.418;7.286;2023-03-22T02:41:30;99156.47;;;11.89;66.74
52855;BME280;38719;51.418;7.286;2023-03-22T02:44:05;99148.56;;;11.87;65.41
52855;BME280;38719;51.418;7.286;2023-03-22T02:46:40;99146.28;;;11.96;66.08
52855;BME280;38719;51.418;7.286;2023-03-22T02:49:15;99142.38;;;11.87;65.72
52855;BME280;38719;51.418;7.286;2023-03-22T02:51:46;99131.59;;;11.88;66.31
52855;BME280;38719;51.418;7.286;2023-03-22T02:54:19;99136.00;;;11.75;66.29
52855;BME280;38719;51.418;7.286;2023-03-22T02:56:53;99133.66;;;11.56;67.55
52855;BME280;38719;51.418;7.286;2023-03-22T02:59:23;99134.38;;;11.72;67.20
52855;BME280;38719;51.418;7.286;2023-03-22T03:01:54;99127.16;;;11.74;67.12
52855;BME280;38719;51.418;7.286;2023-03-22T03:04:27;99124.66;;;11.71;67.11
52855;BME280;38719;51.418;7.286;2023-03-22T03:06:59;99122.47;;;11.78;66.33
52855;BME280;38719;51.418;7.286;2023-03-22T03:09:30;99124.94;;;11.67;67.58
52855;BME280;38719;51.418;7.286;2023-03-22T03:11:59;99122.00;;;11.57;67.02
52855;BME280;38719;51.418;7.286;2023-03-22T03:14:28;99116.22;;;11.65;67.32
52855;BME280;38719;51.418;7.286;2023-03-22T03:17:05;99117.03;;;11.51;67.98
52855;BME280;38719;51.418;7.286;2023-03-22T03:19:41;99113.53;;;11.65;67.53
52855;BME280;38719;51.418;7.286;2023-03-22T03:22:23;99119.34;;;11.71;67.57
52855;BME280;38719;51.418;7.286;2023-03-22T03:25:00;99118.38;;;11.58;67.78
52855;BME280;38719;51.418;7.286;2023-03-22T03:27:35;99110.00;;;11.64;67.43
52855;BME280;38719;51.418;7.286;2023-03-22T03:30:09;99114.69;;;11.46;67.98
52855;BME280;38719;51.418;7.286;2023-03-22T03:32:42;99111.81;;;11.35;68.07
52855;BME280;38719;51.418;7.286;2023-03-22T03:35:13;99107.22;;;11.22;68.66
52855;BME280;38719;51.418;7.286;2023-03-22T03:37:50;99110.50;;;11.27;68.67
52855;BME280;38719;51.418;7.286;2023-03-22T03:40:22;99094.19;;;11.32;68.99
52855;BME280;38719;51.418;7.286;2023-03-22T03:42:53;99102.97;;;11.34;68.39
52855;BME280;38719;51.418;7.286;2023-03-22T03:45:22;99098.47;;;11.35;68.51
52855;BME280;38719;51.418;7.286;2023-03-22T03:47:52;99096.28;;;11.27;69.02
52855;BME280;38719;51.418;7.286;2023-03-22T03:50:23;99096.56;;;11.22;69.32
52855;BME280;38719;51.418;7.286;2023-03-22T03:52:52;99097.16;;;11.27;68.73
52855;BME280;38719;51.418;7.286;2023-03-22T03:55:23;99091.34;;;11.21;68.94
52855;BME280;38719;51.418;7.286;2023-03-22T03:57:50;99089.19;;;11.27;68.33
52855;BME280;38719;51.418;7.286;2023-03-22T04:00:18;99095.25;;;11.29;68.73
52855;BME280;38719;51.418;7.286;2023-03-22T04:02:46;99099.44;;;11.19;68.50
52855;BME280;38719;51.418;7.286;2023-03-22T04:05:14;99091.53;;;11.18;69.09
52855;BME280;38719;51.418;7.286;2023-03-22T04:07:41;99099.84;;;11.27;68.30
52855;BME280;38719;51.418;7.286;2023-03-22T04:10:09;99088.31;;;11.27;68.61
52855;BME280;38719;51.418;7.286;2023-03-22T04:12:38;99095.81;;;11.20;68.62
52855;BME280;38719;51.418;7.286;2023-03-22T04:15:06;99094.56;;;11.26;68.90
52855;BME280;38719;51.418;7.286;2023-03-22T04:17:34;99084.41;;;11.33;68.58
52855;BME280;38719;51.418;7.286;2023-03-22T04:20:03;99091.44;;;11.19;69.02
52855;BME280;38719;51.418;7.286;2023-03-22T04:22:31;99093.53;;;11.14;68.88
52855;BME280;38719;51.418;7.286;2023-03-22T04:25:00;99090.31;;;11.09;69.59
52855;BME280;38719;51.418;7.286;2023-03-22T04:27:27;99086.13;;;11.19;68.99
52855;BME280;38719;51.418;7.286;2023-03-22T04:29:56;99084.13;;;11.23;68.67
52855;BME280;38719;51.418;7.286;2023-03-22T04:32:26;99082.69;;;11.17;68.87
52855;BME280;38719;51.418;7.286;2023-03-22T04:34:53;99087.06;;;11.33;68.67
52855;BME280;38719;51.418;7.286;2023-03-22T04:37:21;99090.03;;;11.28;68.20
52855;BME280;38719;51.418;7.286;2023-03-22T04:39:52;99084.50;;;11.17;68.70
52855;BME280;38719;51.418;7.286;2023-03-22T04:42:19;99096.56;;;11.22;69.36
52855;BME280;38719;51.418;7.286;2023-03-22T04:44:47;99079.66;;;11.09;69.21
52855;BME280;38719;51.418;7.286;2023-03-22T04:47:16;99087.72;;;11.07;69.59
52855;BME280;38719;51.418;7.286;2023-03-22T04:49:44;99090.38;;;11.07;69.66
52855;BME280;38719;51.418;7.286;2023-03-22T04:52:11;99087.81;;;11.06;69.82
52855;BME280;38719;51.418;7.286;2023-03-22T04:54:39;99085.91;;;11.08;69.51
52855;BME280;38719;51.418;7.286;2023-03-22T04:57:06;99074.88;;;11.00;69.08
52855;BME280;38719;51.418;7.286;2023-03-22T04:59:34;99082.69;;;11.03;69.28
52855;BME280;38719;51.418;7.286;2023-03-22T05:02:01;99075.81;;;10.99;69.58
52855;BME280;38719;51.418;7.286;2023-03-22T05:04:30;99073.72;;;11.04;69.27
52855;BME280;38719;51.418;7.286;2023-03-22T05:06:58;99075.53;;;11.03;69.62
52855;BME280;38719;51.418;7.286;2023-03-22T05:09:25;99077.06;;;11.07;69.08
52855;BME280;38719;51.418;7.286;2023-03-22T05:11:53;99078.69;;;11.24;68.69
52855;BME280;38719;51.418;7.286;2023-03-22T05:14:21;99086.97;;;11.20;67.82
52855;BME280;38719;51.418;7.286;2023-03-22T05:16:48;99092.38;;;11.18;68.91
52855;BME280;38719;51.418;7.286;2023-03-22T05:19:16;99087.81;;;11.06;69.33
52855;BME280;38719;51.418;7.286;2023-03-22T05:21:48;99085.81;;;11.09;69.54
52855;BME280;38719;51.418;7.286;2023-03-22T05:24:23;99086.66;;;11.10;69.39
52855;BME280;38719;51.418;7.286;2023-03-22T05:26:50;99085.34;;;11.03;69.40
52855;BME280;38719;51.418;7.286;2023-03-22T05:29:19;99078.91;;;11.21;68.74
52855;BME280;38719;51.418;7.286;2023-03-22T05:31:47;99084.00;;;11.10;69.63
52855;BME280;38719;51.418;7.286;2023-03-22T05:34:15;99074.88;;;11.14;68.88
52855;BME280;38719;51.418;7.286;2023-03-22T05:36:43;99080.03;;;11.32;68.17
52855;BME280;38719;51.418;7.286;2023-03-22T05:39:12;99078.13;;;11.34;68.22
52855;BME280;38719;51.418;7.286;2023-03-22T05:41:41;99077.94;;;11.37;68.13
52855;BME280;38719;51.418;7.286;2023-03-22T05:44:08;99077.09;;;11.36;68.22
52855;BME280;38719;51.418;7.286;2023-03-22T05:46:36;99075.91;;;11.26;68.64
52855;BME280;38719;51.418;7.286;2023-03-22T05:49:03;99070.41;;;11.29;68.49
52855;BME280;38719;51.418;7.286;2023-03-22T05:51:31;99062.31;;;11.45;68.30
52855;BME280;38719;51.418;7.286;2023-03-22T05:53:59;99073.94;;;11.44;68.09
52855;BME280;38719;51.418;7.286;2023-03-22T05:56:27;99071.44;;;11.55;68.24
52855;BME280;38719;51.418;7.286;2023-03-22T05:58:55;99068.78;;;11.55;68.04
52855;BME280;38719;51.418;7.286;2023-03-22T06:01:23;99074.38;;;11.65;67.42
52855;BME280;38719;51.418;7.286;2023-03-22T06:03:50;99072.94;;;11.59;68.22
52855;BME280;38719;51.418;7.286;2023-03-22T06:06:18;99079.16;;;11.74;67.60
52855;BME280;38719;51.418;7.286;2023-03-22T06:08:45;99064.66;;;11.78;66.67
52855;BME280;38719;51.418;7.286;2023-03-22T06:11:13;99063.59;;;11.81;67.96
52855;BME280;38719;51.418;7.286;2023-03-22T06:13:42;99055.22;;;11.73;67.83
52855;BME280;38719;51.418;7.286;2023-03-22T06:16:09;99059.47;;;11.90;67.25
52855;BME280;38719;51.418;7.286;2023-03-22T06:18:37;99061.78;;;11.82;66.60
52855;BME280;38719;51.418;7.286;2023-03-22T06:21:05;99054.94;;;11.77;67.08
52855;BME280;38719;51.418;7.286;2023-03-22T06:23:32;99055.69;;;11.80;67.31
52855;BME280;38719;51.418;7.286;2023-03-22T06:26:01;99062.28;;;11.74;68.11
52855;BME280;38719;51.418;7.286;2023-03-22T06:28:28;99058.84;;;11.72;68.06
52855;BME280;38719;51.418;7.286;2023-03-22T06:30:57;99061.38;;;11.88;67.21
52855;BME280;38719;51.418;7.286;2023-03-22T06:33:24;99058.81;;;11.86;67.10
52855;BME280;38719;51.418;7.286;2023-03-22T06:35:52;99074.06;;;11.84;67.12
52855;BME280;38719;51.418;7.286;2023-03-22T06:38:19;99062.47;;;11.71;67.61
52855;BME280;38719;51.418;7.286;2023-03-22T06:40:47;99066.06;;;11.99;67.13
52855;BME280;38719;51.418;7.286;2023-03-22T06:43:14;99076.97;;;12.08;66.27
52855;BME280;38719;51.418;7.286;2023-03-22T06:45:42;99076.28;;;12.19;66.57
52855;BME280;38719;51.418;7.286;2023-03-22T06:48:13;99072.94;;;12.03;66.37
52855;BME280;38719;51.418;7.286;2023-03-22T06:50:42;99079.72;;;12.21;65.75
52855;BME280;38719;51.418;7.286;2023-03-22T06:53:10;99066.06;;;12.26;66.78
52855;BME280;38719;51.418;7.286;2023-03-22T06:55:38;99065.66;;;12.32;65.61
52855;BME280;38719;51.418;7.286;2023-03-22T06:58:06;99062.69;;;12.37;65.18
52855;BME280;38719;51.418;7.286;2023-03-22T07:00:33;99066.84;;;12.41;65.67
52855;BME280;38719;51.418;7.286;2023-03-22T07:03:01;99069.31;;;12.44;65.47
52855;BME280;38719;51.418;7.286;2023-03-22T07:05:30;99055.69;;;12.21;65.62
52855;BME280;38719;51.418;7.286;2023-03-22T07:07:57;99068.81;;;12.24;65.18
52855;BME280;38719;51.418;7.286;2023-03-22T07:10:25;99065.34;;;12.37;65.06
52855;BME280;38719;51.418;7.286;2023-03-22T07:12:52;99058.28;;;12.36;64.59
52855;BME280;38719;51.418;7.286;2023-03-22T07:15:20;99044.41;;;12.31;64.49
52855;BME280;38719;51.418;7.286;2023-03-22T07:17:50;99049.25;;;12.51;64.57
52855;BME280;38719;51.418;7.286;2023-03-22T07:20:18;99042.22;;;12.50;64.12
52855;BME280;38719;51.418;7.286;2023-03-22T07:22:48;99034.84;;;12.54;63.73
52855;BME280;38719;51.418;7.286;2023-03-22T07:25:16;99044.50;;;12.29;64.68
52855;BME280;38719;51.418;7.286;2023-03-22T07:27:44;99040.88;;;12.30;64.72
52855;BME280;38719;51.418;7.286;2023-03-22T07:30:12;99044.66;;;12.13;65.89
52855;BME280;38719;51.418;7.286;2023-03-22T07:32:39;99037.75;;;12.23;65.34
52855;BME280;38719;51.418;7.286;2023-03-22T07:35:07;99042.13;;;12.24;64.69
52855;BME280;38719;51.418;7.286;2023-03-22T07:37:35;99038.25;;;12.43;64.34
52855;BME280;38719;51.418;7.286;2023-03-22T07:40:05;99040.56;;;12.35;64.38
52855;BME280;38719;51.418;7.286;2023-03-22T07:42:33;99035.03;;;12.38;64.36
52855;BME280;38719;51.418;7.286;2023-03-22T07:45:01;99040.50;;;12.49;64.25
52855;BME280;38719;51.418;7.286;2023-03-22T07:47:29;99042.13;;;12.65;63.44
52855;BME280;38719;51.418;7.286;2023-03-22T07:50:07;99039.53;;;12.50;63.91
52855;BME280;38719;51.418;7.286;2023-03-22T07:52:37;99022.97;;;12.45;63.12
52855;BME280;38719;51.418;7.286;2023-03-22T07:55:07;99025.00;;;12.54;63.65
52855;BME280;38719;51.418;7.286;2023-03-22T07:57:36;99035.91;;;12.64;63.36
52855;BME280;38719;51.418;7.286;2023-03-22T08:00:04;99030.81;;;12.74;63.27
52855;BME280;38719;51.418;7.286;2023-03-22T08:02:33;99018.72;;;12.94;63.14
52855;BME280;38719;51.418;7.286;2023-03-22T08:05:00;99013.31;;;12.96;63.04
52855;BME280;38719;51.418;7.286;2023-03-22T08:07:28;99031.44;;;12.90;62.08
52855;BME280;38719;51.418;7.286;2023-03-22T08:09:56;99018.19;;;12.89;62.45
52855;BME280;38719;51.418;7.286;2023-03-22T08:12:26;99013.72;;;12.89;61.71
52855;BME280;38719;51.418;7.286;2023-03-22T08:14:54;99016.28;;;12.91;61.34
52855;BME280;38719;51.418;7.286;2023-03-22T08:17:21;99013.38;;;12.94;61.23
52855;BME280;38719;51.418;7.286;2023-03-22T08:19:51;99018.41;;;12.73;60.90
52855;BME280;38719;51.418;7.286;2023-03-22T08:22:20;99021.09;;;12.86;60.47
52855;BME280;38719;51.418;7.286;2023-03-22T08:24:51;99038.50;;;12.92;60.71
52855;BME280;38719;51.418;7.286;2023-03-22T08:27:19;99033.91;;;12.94;61.02
52855;BME280;38719;51.418;7.286;2023-03-22T08:29:48;99026.34;;;13.13;60.69
52855;BME280;38719;51.418;7.286;2023-03-22T08:32:16;99031.97;;;13.34;60.50
52855;BME280;38719;51.418;7.286;2023-03-22T08:34:43;99025.09;;;13.56;59.48
52855;BME280;38719;51.418;7.286;2023-03-22T08:37:11;99032.41;;;13.41;58.30
52855;BME280;38719;51.418;7.286;2023-03-22T08:39:39;99028.22;;;13.37;59.03
52855;BME280;38719;51.418;7.286;2023-03-22T08:42:06;99032.41;;;13.28;58.62
52855;BME280;38719;51.418;7.286;2023-03-22T08:44:34;99028.41;;;13.34;58.37
52855;BME280;38719;51.418;7.286;2023-03-22T08:47:03;99024.50;;;13.27;58.48
52855;BME280;38719;51.418;7.286;2023-03-22T08:49:31;99026.53;;;13.49;57.63
52855;BME280;38719;51.418;7.286;2023-03-22T08:51:59;99029.97;;;13.38;58.00
52855;BME280;38719;51.418;7.286;2023-03-22T08:54:26;99032.50;;;13.52;57.98
52855;BME280;38719;51.418;7.286;2023-03-22T08:56:58;99029.91;;;13.64;57.39
52855;BME280;38719;51.418;7.286;2023-03-22T08:59:29;99034.00;;;13.57;57.86
52855;BME280;38719;51.418;7.286;2023-03-22T09:01:56;99037.25;;;13.73;58.34
52855;BME280;38719;51.418;7.286;2023-03-22T09:04:25;99032.66;;;13.75;57.97
52855;BME280;38719;51.418;7.286;2023-03-22T09:06:53;99028.66;;;13.57;58.32
52855;BME280;38719;51.418;7.286;2023-03-22T09:09:20;99035.03;;;13.67;57.67
52855;BME280;38719;51.418;7.286;2023-03-22T09:11:48;99026.09;;;13.42;57.88
52855;BME280;38719;51.418;7.286;2023-03-22T09:14:16;99023.63;;;13.52;58.18
52855;BME280;38719;51.418;7.286;2023-03-22T09:16:43;99023.22;;;13.82;57.16
52855;BME280;38719;51.418;7.286;2023-03-22T09:19:11;99022.59;;;14.03;57.41
52855;BME280;38719;51.418;7.286;2023-03-22T09:21:39;99017.97;;;14.05;56.44
52855;BME280;38719;51.418;7.286;2023-03-22T09:24:08;99025.22;;;14.16;56.84
52855;BME280;38719;51.418;7.286;2023-03-22T09:26:35;99020.03;;;14.26;56.66
52855;BME280;38719;51.418;7.286;2023-03-22T09:29:03;99021.59;;;14.17;56.88
52855;BME280;38719;51.418;7.286;2023-03-22T09:31:30;99016.34;;;14.27;55.90
52855;BME280;38719;51.418;7.286;2023-03-22T09:33:58;99027.47;;;14.09;56.09
52855;BME280;38719;51.418;7.286;2023-03-22T09:36:26;99025.84;;;14.19;56.12
52855;BME280;38719;51.418;7.286;2023-03-22T09:38:55;99027.59;;;14.08;55.96
52855;BME280;38719;51.418;7.286;2023-03-22T09:41:26;99023.63;;;14.13;55.70
52855;BME280;38719;51.418;7.286;2023-03-22T09:44:01;99018.66;;;14.20;55.65
52855;BME280;38719;51.418;7.286;2023-03-22T09:46:33;99020.50;;;14.19;54.69
52855;BME280;38719;51.418;7.286;2023-03-22T09:49:04;99029.16;;;13.99;55.28
52855;BME280;38719;51.418;7.286;2023-03-22T09:51:38;98997.16;;;13.97;56.18
52855;BME280;38719;51.418;7.286;2023-03-22T09:54:12;99010.91;;;14.28;55.05
52855;BME280;38719;51.418;7.286;2023-03-22T09:56:42;98996.44;;;14.66;54.00
52855;BME280;38719;51.418;7.286;2023-03-22T09:59:14;99007.06;;;14.79;54.43
52855;BME280;38719;51.418;7.286;2023-03-22T10:01:47;99013.16;;;14.81;54.34
52855;BME280;38719;51.418;7.286;2023-03-22T10:04:37;99022.81;;;14.60;53.90
52855;BME280;38719;51.418;7.286;2023-03-22T10:07:17;99017.69;;;14.57;53.83
52855;BME280;38719;51.418;7.286;2023-03-22T10:10:00;99016.06;;;14.78;54.36
52855;BME280;38719;51.418;7.286;2023-03-22T10:12:34;99011.47;;;14.92;54.54
52855;BME280;38719;51.418;7.286;2023-03-22T10:15:10;99024.59;;;14.83;53.76
52855;BME280;38719;51.418;7.286;2023-03-22T10:17:41;99023.88;;;14.70;53.62
52855;BME280;38719;51.418;7.286;2023-03-22T10:20:18;99020.88;;;14.62;53.28
52855;BME280;38719;51.418;7.286;2023-03-22T10:22:48;99013.91;;;14.48;53.46
52855;BME280;38719;51.418;7.286;2023-03-22T10:25:23;99017.78;;;14.44;53.19
52855;BME280;38719;51.418;7.286;2023-03-22T10:27:54;99001.69;;;14.44;53.70
52855;BME280;38719;51.418;7.286;2023-03-22T10:30:25;99016.31;;;14.75;53.31
52855;BME280;38719;51.418;7.286;2023-03-22T10:32:56;99008.66;;;14.82;52.43
52855;BME280;38719;51.418;7.286;2023-03-22T10:35:28;99004.16;;;14.94;52.20
52855;BME280;38719;51.418;7.286;2023-03-22T10:37:57;99004.78;;;14.97;51.26
52855;BME280;38719;51.418;7.286;2023-03-22T10:40:30;99005.09;;;14.70;51.33
52855;BME280;38719;51.418;7.286;2023-03-22T10:43:01;99001.34;;;14.73;50.94
52855;BME280;38719;51.418;7.286;2023-03-22T10:45:32;99011.94;;;14.86;51.68
52855;BME280;38719;51.418;7.286;2023-03-22T10:48:03;99011.66;;;14.77;51.22
52855;BME280;38719;51.418;7.286;2023-03-22T10:50:35;99018.88;;;14.52;52.15
52855;BME280;38719;51.418;7.286;2023-03-22T10:53:05;99022.09;;;14.58;51.67
52855;BME280;38719;51.418;7.286;2023-03-22T10:55:39;99014.97;;;14.81;50.43
52855;BME280;38719;51.418;7.286;2023-03-22T10:58:11;99017.78;;;14.91;50.14
52855;BME280;38719;51.418;7.286;2023-03-22T11:00:43;99010.09;;;14.75;50.91
52855;BME280;38719;51.418;7.286;2023-03-22T11:03:25;99006.31;;;14.77;51.04
52855;BME280;38719;51.418;7.286;2023-03-22T11:06:01;99019.00;;;14.87;49.98
52855;BME280;38719;51.418;7.286;2023-03-22T11:08:37;99006.78;;;14.71;50.45
52855;BME280;38719;51.418;7.286;2023-03-22T11:11:15;98998.41;;;14.76;49.88
52855;BME280;38719;51.418;7.286;2023-03-22T11:13:49;99007.06;;;14.79;50.29
52855;BME280;38719;51.418;7.286;2023-03-22T11:16:17;99001.09;;;14.76;49.91
52855;BME280;38719;51.418;7.286;2023-03-22T11:18:46;99011.56;;;14.79;50.64
52855;BME280;38719;51.418;7.286;2023-03-22T11:21:15;99006.09;;;14.92;49.72
52855;BME280;38719;51.418;7.286;2023-03-22T11:23:51;98999.28;;;14.99;49.93
52855;BME280;38719;51.418;7.286;2023-03-22T11:26:28;99008.03;;;14.78;49.86
52855;BME280;38719;51.418;7.286;2023-03-22T11:29:11;98996.59;;;14.88;50.29
52855;BME280;38719;51.418;7.286;2023-03-22T11:31:53;99005.63;;;14.98;49.42
52855;BME280;38719;51.418;7.286;2023-03-22T11:34:25;99003.69;;;15.23;48.80
52855;BME280;38719;51.418;7.286;2023-03-22T11:36:53;98995.91;;;15.20;48.67
52855;BME280;38719;51.418;7.286;2023-03-22T11:39:24;98999.19;;;15.35;48.61
52855;BME280;38719;51.418;7.286;2023-03-22T11:41:57;99004.44;;;15.13;48.97
52855;BME280;38719;51.418;7.286;2023-03-22T11:44:30;99000.25;;;14.98;48.89
52855;BME280;38719;51.418;7.286;2023-03-22T11:47:00;98999.03;;;14.91;48.78
52855;BME280;38719;51.418;7.286;2023-03-22T11:49:37;98998.41;;;14.87;49.03
52855;BME280;38719;51.418;7.286;2023-03-22T11:52:08;99004.50;;;14.78;49.56
52855;BME280;38719;51.418;7.286;2023-03-22T11:54:37;99002.66;;;14.78;49.46
52855;BME280;38719;51.418;7.286;2023-03-22T11:57:13;98991.72;;;14.81;49.88
52855;BME280;38719;51.418;7.286;2023-03-22T11:59:47;98997.44;;;14.77;50.32
52855;BME280;38719;51.418;7.286;2023-03-22T12:02:20;99007.03;;;14.68;50.40
52855;BME280;38719;51.418;7.286;2023-03-22T12:04:53;98998.19;;;14.43;51.08
52855;BME280;38719;51.418;7.286;2023-03-22T12:07:23;98999.44;;;14.26;51.84
52855;BME280;38719;51.418;7.286;2023-03-22T12:09:56;98996.69;;;14.39;51.43
52855;BME280;38719;51.418;7.286;2023-03-22T12:12:28;98994.63;;;14.43;52.00
52855;BME280;38719;51.418;7.286;2023-03-22T12:15:00;98988.66;;;14.39;51.69
52855;BME280;38719;51.418;7.286;2023-03-22T12:17:34;98987.28;;;14.58;51.46
52855;BME280;38719;51.418;7.286;2023-03-22T12:20:12;98982.28;;;14.64;51.46
52855;BME280;38719;51.418;7.286;2023-03-22T12:22:47;98970.84;;;14.74;50.88
52855;BME280;38719;51.418;7.286;2023-03-22T12:25:18;98966.84;;;14.68;50.63
52855;BME280;38719;51.418;7.286;2023-03-22T12:27:52;98970.28;;;14.70;50.79
52855;BME280;38719;51.418;7.286;2023-03-22T12:30:22;98968.13;;;14.51;51.49
52855;BME280;38719;51.418;7.286;2023-03-22T12:32:55;98970.31;;;14.57;51.28
52855;BME280;38719;51.418;7.286;2023-03-22T12:35:28;98952.94;;;14.63;50.61
52855;BME280;38719;51.418;7.286;2023-03-22T12:37:59;98964.19;;;14.44;51.41
52855;BME280;38719;51.418;7.286;2023-03-22T12:40:31;98970.91;;;14.49;51.00
52855;BME280;38719;51.418;7.286;2023-03-22T12:43:06;98968.94;;;14.40;50.63
52855;BME280;38719;51.418;7.286;2023-03-22T12:45:39;98963.22;;;14.33;50.97
52855;BME280;38719;51.418;7.286;2023-03-22T12:48:13;98972.63;;;14.50;50.78
52855;BME280;38719;51.418;7.286;2023-03-22T12:50:44;98979.50;;;14.30;50.50
52855;BME280;38719;51.418;7.286;2023-03-22T12:53:15;98980.63;;;14.39;51.01
52855;BME280;38719;51.418;7.286;2023-03-22T12:55:44;98981.84;;;14.35;51.14
52855;BME280;38719;51.418;7.286;2023-03-22T12:58:19;98988.28;;;14.32;51.22
52855;BME280;38719;51.418;7.286;2023-03-22T13:00:48;98990.63;;;14.13;51.60
52855;BME280;38719;51.418;7.286;2023-03-22T13:03:23;98988.56;;;14.16;51.89
52855;BME280;38719;51.418;7.286;2023-03-22T13:06:00;98987.66;;;14.29;51.88
52855;BME280;38719;51.418;7.286;2023-03-22T13:09:02;98976.44;;;14.24;52.16
52855;BME280;38719;51.418;7.286;2023-03-22T13:11:38;98983.69;;;14.10;52.68
52855;BME280;38719;51.418;7.286;2023-03-22T13:14:10;98984.59;;;14.22;52.38
52855;BME280;38719;51.418;7.286;2023-03-22T13:16:48;98993.34;;;14.24;53.10
52855;BME280;38719;51.418;7.286;2023-03-22T13:19:32;98991.72;;;14.10;53.14
52855;BME280;38719;51.418;7.286;2023-03-22T13:22:13;98989.97;;;13.98;52.97
52855;BME280;38719;51.418;7.286;2023-03-22T13:25:03;99005.22;;;13.84;53.60